createdAt,value
2018-11-02T00:01:05.322Z,18.90
2018-11-02T00:03:37.306Z,19.93
2018-11-02T00:06:09.314Z,19.60
2018-11-02T00:08:41.330Z,21.33
2018-11-02T00:11:13.359Z,21.50
2018-11-02T00:13:45.446Z,19.77
2018-11-02T00:16:17.522Z,20.83
2018-11-02T00:18:49.523Z,20.67
2018-11-02T00:21:21.514Z,20.47
2018-11-02T00:23:53.544Z,19.07
2018-11-02T00:26:25.582Z,19.60
2018-11-02T00:28:57.597Z,19.73
2018-11-02T00:31:29.654Z,19.63
2018-11-02T00:34:01.783Z,20.53
2018-11-02T00:36:33.804Z,20.33
2018-11-02T00:39:06.296Z,20.67
2018-11-02T00:41:38.390Z,22.00
2018-11-02T00:44:10.603Z,22.10
2018-11-02T00:46:42.474Z,19.47
2018-11-02T00:49:14.497Z,18.50
2018-11-02T00:51:46.482Z,19.20
2018-11-02T00:54:18.506Z,20.03
2018-11-02T00:56:50.517Z,17.73
2018-11-02T00:59:22.534Z,17.27
2018-11-02T01:01:54.547Z,16.23
2018-11-02T01:04:26.567Z,18.23
2018-11-02T01:06:58.614Z,17.70
2018-11-02T01:09:30.629Z,17.80
2018-11-02T01:12:02.671Z,17.83
2018-11-02T01:14:34.651Z,18.63
2018-11-02T01:17:06.650Z,17.07
2018-11-02T01:19:38.651Z,18.20
2018-11-02T01:22:10.704Z,17.80
2018-11-02T01:24:42.748Z,20.43
2018-11-02T01:27:14.807Z,21.17
2018-11-02T01:29:46.814Z,22.33
2018-11-02T01:32:18.851Z,26.33
2018-11-02T01:34:50.858Z,25.47
2018-11-02T01:37:22.876Z,25.17
2018-11-02T01:39:54.889Z,23.60
2018-11-02T01:42:26.954Z,23.30
2018-11-02T01:44:58.907Z,20.87
2018-11-02T01:47:30.930Z,21.20
2018-11-02T01:50:02.937Z,21.47
2018-11-02T01:52:34.969Z,20.67
2018-11-02T01:55:07.438Z,19.40
2018-11-02T01:57:39.423Z,18.47
2018-11-02T02:00:11.441Z,17.03
2018-11-02T02:02:43.446Z,18.27
2018-11-02T02:05:15.494Z,17.17
2018-11-02T02:07:47.490Z,16.57
2018-11-02T02:10:19.494Z,16.47
2018-11-02T02:12:51.485Z,17.67
2018-11-02T02:15:23.494Z,17.07
2018-11-02T02:17:55.523Z,18.63
2018-11-02T02:20:27.527Z,17.97
2018-11-02T02:22:59.541Z,17.83
2018-11-02T02:25:31.546Z,18.37
2018-11-02T02:28:03.618Z,16.97
2018-11-02T02:30:35.640Z,16.50
2018-11-02T02:33:07.677Z,16.50
2018-11-02T02:35:39.670Z,16.30
2018-11-02T02:38:11.685Z,17.63
2018-11-02T02:40:43.682Z,17.20
2018-11-02T02:43:15.712Z,17.37
2018-11-02T02:45:47.698Z,17.27
2018-11-02T02:48:19.748Z,17.40
2018-11-02T02:50:51.737Z,17.13
2018-11-02T02:53:23.770Z,15.77
2018-11-02T02:55:55.853Z,15.03
2018-11-02T02:58:27.853Z,14.23
2018-11-02T03:00:59.926Z,14.50
2018-11-02T03:03:31.871Z,13.50
2018-11-02T03:06:03.974Z,12.97
2018-11-02T03:08:35.952Z,13.30
2018-11-02T03:11:08.072Z,11.13
2018-11-02T03:13:39.995Z,9.47
2018-11-02T03:16:12.037Z,10.10
2018-11-02T03:18:44.135Z,10.33
2018-11-02T03:21:16.102Z,10.43
2018-11-02T03:23:48.101Z,9.93
2018-11-02T03:26:20.146Z,10.00
2018-11-02T03:28:52.152Z,10.73
2018-11-02T03:31:24.202Z,10.40
2018-11-02T03:33:56.201Z,11.00
2018-11-02T03:36:28.226Z,10.23
2018-11-02T03:39:00.214Z,9.87
2018-11-02T03:41:32.205Z,9.33
2018-11-02T03:44:04.482Z,8.90
2018-11-02T03:46:36.764Z,7.87
2018-11-02T03:49:08.817Z,8.70
2018-11-02T03:51:40.798Z,7.93
2018-11-02T03:54:12.850Z,7.10
2018-11-02T03:56:44.917Z,8.77
2018-11-02T03:59:16.882Z,8.20
2018-11-02T04:01:48.924Z,8.67
2018-11-02T04:04:20.922Z,9.10
2018-11-02T04:06:52.953Z,9.00
2018-11-02T04:09:25.044Z,10.10
2018-11-02T04:11:57.003Z,9.50
2018-11-02T04:14:29.022Z,9.37
2018-11-02T04:17:01.056Z,9.90
2018-11-02T04:19:33.073Z,8.93
2018-11-02T04:22:05.074Z,8.87
2018-11-02T04:24:37.124Z,9.43
2018-11-02T04:27:09.174Z,9.30
2018-11-02T04:29:41.248Z,9.03
2018-11-02T04:32:13.275Z,9.33
2018-11-02T04:34:45.290Z,9.27
2018-11-02T04:37:17.339Z,9.80
2018-11-02T04:39:49.383Z,9.57
2018-11-02T04:42:21.454Z,9.60
2018-11-02T04:44:53.478Z,11.53
2018-11-02T04:47:25.510Z,11.23
2018-11-02T04:49:57.512Z,11.17
2018-11-02T04:52:29.566Z,11.33
2018-11-02T04:55:01.602Z,10.60
2018-11-02T04:57:33.633Z,10.50
2018-11-02T05:00:07.333Z,10.50
2018-11-02T05:02:39.495Z,10.57
2018-11-02T05:05:11.828Z,11.40
2018-11-02T05:07:43.797Z,11.03
2018-11-02T05:10:15.830Z,10.80
2018-11-02T05:12:47.873Z,10.23
2018-11-02T05:15:19.910Z,9.87
2018-11-02T05:17:51.994Z,11.23
2018-11-02T05:20:24.080Z,10.93
2018-11-02T05:22:56.115Z,11.23
2018-11-02T05:25:28.114Z,11.97
2018-11-02T05:28:00.126Z,10.30
2018-11-02T05:30:32.162Z,10.83
2018-11-02T05:33:04.777Z,9.83
2018-11-02T05:35:36.816Z,9.30
2018-11-02T05:38:08.866Z,9.17
2018-11-02T05:40:40.869Z,9.30
2018-11-02T05:43:12.867Z,8.93
2018-11-02T05:45:44.891Z,9.27
2018-11-02T05:48:16.910Z,10.20
2018-11-02T05:50:48.939Z,10.00
2018-11-02T05:53:20.934Z,10.10
2018-11-02T05:55:52.966Z,10.10
2018-11-02T05:58:24.954Z,10.03
2018-11-02T06:00:56.962Z,9.50
2018-11-02T06:03:28.950Z,9.70
2018-11-02T06:06:00.988Z,9.60
2018-11-02T06:08:33.002Z,8.53
2018-11-02T06:11:05.190Z,9.57
2018-11-02T06:13:37.238Z,8.47
2018-11-02T06:16:09.236Z,9.23
2018-11-02T06:18:42.056Z,9.83
2018-11-02T06:21:14.132Z,9.90
2018-11-02T06:23:46.212Z,9.93
2018-11-02T06:26:18.248Z,9.50
2018-11-02T06:28:50.272Z,10.23
2018-11-02T06:31:22.385Z,10.87
2018-11-02T06:33:54.410Z,10.27
2018-11-02T06:36:26.463Z,10.03
2018-11-02T06:38:58.544Z,10.33
2018-11-02T06:41:30.486Z,11.27
2018-11-02T06:44:02.507Z,11.00
2018-11-02T06:46:34.576Z,10.97
2018-11-02T06:49:06.619Z,11.13
2018-11-02T06:51:38.649Z,11.27
2018-11-02T06:54:10.954Z,10.60
2018-11-02T06:56:43.009Z,10.20
2018-11-02T06:59:15.175Z,9.93
2018-11-02T07:01:47.084Z,9.73
2018-11-02T07:04:19.148Z,8.67
2018-11-02T07:06:51.182Z,8.90
2018-11-02T07:09:23.177Z,6.93
2018-11-02T07:11:55.205Z,7.17
2018-11-02T07:14:27.208Z,6.73
2018-11-02T07:16:59.248Z,7.03
2018-11-02T07:19:31.254Z,6.13
2018-11-02T07:22:03.395Z,6.47
2018-11-02T07:24:35.397Z,5.87
2018-11-02T07:27:07.419Z,6.63
2018-11-02T07:29:39.405Z,5.50
2018-11-02T07:32:11.463Z,6.37
2018-11-02T07:34:43.470Z,6.43
2018-11-02T07:37:15.478Z,5.57
2018-11-02T07:39:47.545Z,5.03
2018-11-02T07:42:19.519Z,5.23
2018-11-02T07:44:51.549Z,5.20
2018-11-02T07:47:23.553Z,5.10
2018-11-02T07:49:55.560Z,4.40
2018-11-02T07:52:27.601Z,5.50
2018-11-02T07:54:59.584Z,4.87
2018-11-02T07:57:31.646Z,5.57
2018-11-02T08:00:03.661Z,4.93
2018-11-02T08:02:35.698Z,5.13
2018-11-02T08:05:07.694Z,4.77
2018-11-02T08:07:39.706Z,5.33
2018-11-02T08:10:11.713Z,4.30
2018-11-02T08:12:43.714Z,5.23
2018-11-02T08:15:15.750Z,5.00
2018-11-02T08:17:47.823Z,4.97
2018-11-02T08:20:19.810Z,4.30
2018-11-02T08:22:51.834Z,5.00
2018-11-02T08:25:23.872Z,4.30
2018-11-02T08:27:55.886Z,4.00
2018-11-02T08:30:27.901Z,5.00
2018-11-02T08:32:59.938Z,5.53
2018-11-02T08:35:31.923Z,6.60
2018-11-02T08:38:04.068Z,6.30
2018-11-02T08:40:36.094Z,5.53
2018-11-02T08:43:08.110Z,6.20
2018-11-02T08:45:40.106Z,6.90
2018-11-02T08:48:12.117Z,6.60
2018-11-02T08:50:44.122Z,6.03
2018-11-02T08:53:16.125Z,6.13
2018-11-02T08:55:48.229Z,6.67
2018-11-02T08:58:20.347Z,6.00
2018-11-02T09:00:52.259Z,6.40
2018-11-02T09:03:24.235Z,6.17
2018-11-02T09:05:56.269Z,6.40
2018-11-02T09:08:28.270Z,6.63
2018-11-02T09:11:00.292Z,6.63
2018-11-02T09:13:32.287Z,6.07
2018-11-02T09:16:04.379Z,7.07
2018-11-02T09:18:36.408Z,5.60
2018-11-02T09:21:08.405Z,6.50
2018-11-02T09:23:40.378Z,6.73
2018-11-02T09:26:12.417Z,7.17
2018-11-02T09:28:44.426Z,6.67
2018-11-02T09:31:16.444Z,6.53
2018-11-02T09:33:48.436Z,6.43
2018-11-02T09:36:20.450Z,6.50
2018-11-02T09:38:52.501Z,6.53
2018-11-02T09:41:24.502Z,6.80
2018-11-02T09:43:56.517Z,6.47
2018-11-02T09:46:28.542Z,6.77
2018-11-02T09:49:00.543Z,6.50
2018-11-02T09:51:32.606Z,6.17
2018-11-02T09:54:04.731Z,6.17
2018-11-02T09:56:36.727Z,6.10
2018-11-02T09:59:08.762Z,6.53
2018-11-02T10:01:40.798Z,6.77
2018-11-02T10:04:12.959Z,6.50
2018-11-02T10:06:45.006Z,5.73
2018-11-02T10:09:17.144Z,5.37
2018-11-02T10:11:49.174Z,5.23
2018-11-02T10:14:21.178Z,5.73
2018-11-02T10:16:53.221Z,5.20
2018-11-02T10:19:25.242Z,4.87
2018-11-02T10:21:57.306Z,5.17
2018-11-02T10:24:29.322Z,5.10
2018-11-02T10:27:01.347Z,5.13
2018-11-02T10:29:33.377Z,4.80
2018-11-02T10:32:05.456Z,5.00
2018-11-02T10:34:37.485Z,4.80
2018-11-02T10:37:09.546Z,4.27
2018-11-02T10:39:41.805Z,5.03
2018-11-02T10:42:13.781Z,4.50
2018-11-02T10:44:45.879Z,4.10
2018-11-02T10:47:17.890Z,4.80
2018-11-02T10:49:49.909Z,4.80
2018-11-02T10:52:21.946Z,3.80
2018-11-02T10:54:53.963Z,4.07
2018-11-02T10:57:26.002Z,4.10
2018-11-02T10:59:58.015Z,3.80
2018-11-02T11:02:35.774Z,4.10
2018-11-02T11:05:08.115Z,3.80
2018-11-02T11:07:40.166Z,4.03
2018-11-02T11:10:12.232Z,4.07
2018-11-02T11:12:44.405Z,3.40
2018-11-02T11:15:16.280Z,3.80
2018-11-02T11:17:48.293Z,3.40
2018-11-02T11:20:21.138Z,3.50
2018-11-02T11:22:53.143Z,3.20
2018-11-02T11:25:25.229Z,3.40
2018-11-02T11:27:57.260Z,3.20
2018-11-02T11:30:29.311Z,3.30
2018-11-02T11:33:01.311Z,3.43
2018-11-02T11:35:33.355Z,2.83
2018-11-02T11:38:05.367Z,2.60
2018-11-02T11:40:37.466Z,2.80
2018-11-02T11:43:09.497Z,3.03
2018-11-02T11:45:41.549Z,2.50
2018-11-02T11:48:13.551Z,2.40
2018-11-02T11:50:45.608Z,2.20
2018-11-02T11:53:17.639Z,2.47
2018-11-02T11:55:49.691Z,2.43
2018-11-02T11:58:21.707Z,2.27
2018-11-02T12:00:53.747Z,2.77
2018-11-02T12:03:25.781Z,2.57
2018-11-02T12:05:57.842Z,2.50
2018-11-02T12:08:29.874Z,2.17
2018-11-02T12:11:01.904Z,2.63
2018-11-02T12:13:33.907Z,2.60
2018-11-02T12:16:06.130Z,2.60
2018-11-02T12:18:37.994Z,2.40
2018-11-02T12:21:10.007Z,2.07
2018-11-02T12:23:42.108Z,2.03
2018-11-02T12:26:14.140Z,2.43
2018-11-02T12:28:46.277Z,2.93
2018-11-02T12:31:18.271Z,2.23
2018-11-02T12:33:50.419Z,2.00
2018-11-02T12:36:22.500Z,2.53
2018-11-02T12:38:54.551Z,2.27
2018-11-02T12:41:26.594Z,2.43
2018-11-02T12:43:58.732Z,2.17
2018-11-02T12:46:30.670Z,1.90
2018-11-02T12:49:03.021Z,1.90
2018-11-02T12:51:34.785Z,1.90
2018-11-02T12:54:06.838Z,2.10
2018-11-02T12:56:38.869Z,2.00
2018-11-02T12:59:10.996Z,2.23
2018-11-02T13:01:42.999Z,2.07
2018-11-02T13:04:15.021Z,2.10
2018-11-02T13:06:47.092Z,2.93
2018-11-02T13:09:19.218Z,2.47
2018-11-02T13:11:51.318Z,1.80
2018-11-02T13:14:23.222Z,2.20
2018-11-02T13:16:55.305Z,2.07
2018-11-02T13:19:27.430Z,1.83
2018-11-02T13:21:59.622Z,1.70
2018-11-02T13:24:31.746Z,1.80
2018-11-02T13:27:03.821Z,1.87
2018-11-02T13:29:35.837Z,2.07
2018-11-02T13:32:07.950Z,1.90
2018-11-02T13:34:39.992Z,1.60
2018-11-02T13:37:12.123Z,2.30
2018-11-02T13:39:44.210Z,1.87
2018-11-02T13:42:16.356Z,1.97
2018-11-02T13:44:48.366Z,1.70
2018-11-02T13:47:20.395Z,1.83
2018-11-02T13:49:52.442Z,1.90
2018-11-02T13:52:24.490Z,2.00
2018-11-02T13:54:56.510Z,2.20
2018-11-02T13:57:28.537Z,2.20
2018-11-02T14:00:00.609Z,1.97
2018-11-02T14:02:32.651Z,2.10
2018-11-02T14:05:06.086Z,1.97
2018-11-02T14:07:38.114Z,2.17
2018-11-02T14:10:10.738Z,2.40
2018-11-02T14:12:42.761Z,1.90
2018-11-02T14:15:15.695Z,1.70
2018-11-02T14:17:47.751Z,1.93
2018-11-02T14:20:19.845Z,2.07
2018-11-02T14:22:51.894Z,2.13
2018-11-02T14:25:23.922Z,2.20
2018-11-02T14:27:55.994Z,1.83
2018-11-02T14:30:28.045Z,2.13
2018-11-02T14:33:00.086Z,2.10
2018-11-02T14:35:32.123Z,1.80
2018-11-02T14:38:04.426Z,2.50
2018-11-02T14:40:36.435Z,2.90
2018-11-02T14:43:08.484Z,1.73
2018-11-02T14:45:40.537Z,2.10
2018-11-02T14:48:12.603Z,2.10
2018-11-02T14:50:44.732Z,2.20
2018-11-02T14:53:16.754Z,1.80
2018-11-02T14:55:48.848Z,2.30
2018-11-02T14:58:20.972Z,2.57
2018-11-02T15:00:53.043Z,2.50
2018-11-02T15:03:25.312Z,2.50
2018-11-02T15:05:57.413Z,2.30
2018-11-02T15:08:29.503Z,2.13
2018-11-02T15:11:01.538Z,2.60
2018-11-02T15:13:33.603Z,2.67
2018-11-02T15:16:05.631Z,2.40
2018-11-02T15:18:37.777Z,2.90
2018-11-02T15:21:09.757Z,2.80
2018-11-02T15:23:41.794Z,2.37
2018-11-02T15:26:13.875Z,2.60
2018-11-02T15:28:45.897Z,2.13
2018-11-02T15:31:17.936Z,2.10
2018-11-02T15:33:50.001Z,2.70
2018-11-02T15:36:22.103Z,2.73
2018-11-02T15:38:54.121Z,2.77
2018-11-02T15:41:26.150Z,2.70
2018-11-02T15:43:58.159Z,2.70
2018-11-02T15:46:30.201Z,2.53
2018-11-02T15:49:02.240Z,2.50
2018-11-02T15:51:34.323Z,5.13
2018-11-02T15:54:06.358Z,4.33
2018-11-02T15:56:38.407Z,2.90
2018-11-02T15:59:10.431Z,2.97
2018-11-02T16:01:42.466Z,3.20
2018-11-02T16:04:14.479Z,2.57
2018-11-02T16:06:46.639Z,2.97
2018-11-02T16:09:18.591Z,2.67
2018-11-02T16:11:50.670Z,2.90
2018-11-02T16:14:22.802Z,3.43
2018-11-02T16:16:54.811Z,7.63
2018-11-02T16:19:26.859Z,6.90
2018-11-02T16:21:58.956Z,8.63
2018-11-02T16:24:30.974Z,9.53
2018-11-02T16:29:41.610Z,13.60
2018-11-02T16:32:13.611Z,12.30
2018-11-02T16:34:45.714Z,10.77
2018-11-02T16:37:17.750Z,10.40
2018-11-02T16:39:49.842Z,8.33
2018-11-02T16:42:21.885Z,7.97
2018-11-02T16:44:53.975Z,6.87
2018-11-02T16:47:26.001Z,5.97
2018-11-02T16:49:58.053Z,6.20
2018-11-02T16:52:30.045Z,5.67
2018-11-02T16:55:02.096Z,6.37
2018-11-02T16:57:34.216Z,6.10
2018-11-02T17:00:13.432Z,5.90
2018-11-02T17:02:47.397Z,6.80
2018-11-02T17:05:19.443Z,8.23
2018-11-02T17:07:51.495Z,6.90
2018-11-02T17:10:23.547Z,7.10
2018-11-02T17:12:55.554Z,6.30
2018-11-02T17:15:27.626Z,6.43
2018-11-02T17:17:59.660Z,6.30
2018-11-02T17:20:31.690Z,5.47
2018-11-02T17:23:03.757Z,5.93
2018-11-02T17:25:35.814Z,7.00
2018-11-02T17:28:07.847Z,5.93
2018-11-02T17:30:39.923Z,5.67
2018-11-02T17:33:11.986Z,6.47
2018-11-02T17:35:44.025Z,6.13
2018-11-02T17:38:16.030Z,6.37
2018-11-02T17:40:48.094Z,6.87
2018-11-02T17:43:20.127Z,6.27
2018-11-02T17:45:52.322Z,6.20
2018-11-02T17:48:24.403Z,6.13
2018-11-02T17:50:56.745Z,6.13
2018-11-02T17:53:28.830Z,7.47
2018-11-02T17:56:00.848Z,6.60
2018-11-02T17:58:32.945Z,6.30
2018-11-02T18:01:04.959Z,5.97
2018-11-02T18:03:37.072Z,5.50
2018-11-02T18:06:09.149Z,5.43
2018-11-02T18:08:41.138Z,5.23
2018-11-02T18:11:13.198Z,5.00
2018-11-02T18:13:45.312Z,5.97
2018-11-02T18:16:17.357Z,5.33
2018-11-02T18:18:49.577Z,6.30
2018-11-02T18:21:22.202Z,5.57
2018-11-02T18:23:54.573Z,6.13
2018-11-02T18:26:27.612Z,5.90
2018-11-02T18:28:59.825Z,6.20
2018-11-02T18:31:31.915Z,7.70
2018-11-02T18:34:04.093Z,6.67
2018-11-02T18:36:36.427Z,6.37
2018-11-02T18:39:11.606Z,5.70
2018-11-02T18:41:44.247Z,6.57
2018-11-02T18:44:16.277Z,6.77
2018-11-02T18:46:48.321Z,7.50
2018-11-02T18:49:20.358Z,7.77
2018-11-02T18:51:53.239Z,8.07
2018-11-02T18:54:25.997Z,8.03
2018-11-02T18:56:58.881Z,8.10
2018-11-02T18:59:31.034Z,8.10
2018-11-02T19:02:03.198Z,9.50
2018-11-02T19:04:35.950Z,11.10
2018-11-02T19:07:08.152Z,10.43
2018-11-02T19:09:40.382Z,8.77
2018-11-02T19:12:12.660Z,9.87
2018-11-02T19:14:45.152Z,11.17
2018-11-02T19:17:17.399Z,11.37
2018-11-02T19:19:49.711Z,8.90
2018-11-02T19:22:21.814Z,10.33
2018-11-02T19:24:54.317Z,10.10
2018-11-02T19:27:26.376Z,9.40
2018-11-02T19:29:58.475Z,10.83
2018-11-02T19:32:30.858Z,9.37
2018-11-02T19:35:03.378Z,19.53
2018-11-02T19:37:35.342Z,13.10
2018-11-02T19:40:09.136Z,11.80
2018-11-02T19:42:41.313Z,10.43
2018-11-02T19:45:13.856Z,16.90
2018-11-02T19:48:05.244Z,15.67
2018-11-02T19:50:37.411Z,11.80
2018-11-02T19:53:09.585Z,11.80
2018-11-02T19:55:41.814Z,11.00
2018-11-02T19:58:13.866Z,11.77
2018-11-02T20:00:46.093Z,11.03
2018-11-02T20:03:18.163Z,10.47
2018-11-02T20:05:50.345Z,10.83
2018-11-02T20:08:22.707Z,9.77
2018-11-02T20:10:55.681Z,11.37
2018-11-02T20:13:27.816Z,12.00
2018-11-02T20:16:00.017Z,13.43
2018-11-02T20:18:32.150Z,14.67
2018-11-02T20:21:04.348Z,13.60
2018-11-02T20:23:37.116Z,11.77
2018-11-02T20:26:10.000Z,12.33
2018-11-02T20:28:42.957Z,16.03
2018-11-02T20:31:15.789Z,14.13
2018-11-02T20:33:48.697Z,12.73
2018-11-02T20:36:21.390Z,14.07
2018-11-02T20:38:54.236Z,13.80
2018-11-02T20:41:27.032Z,13.43
2018-11-02T20:43:59.975Z,13.50
2018-11-02T20:46:33.084Z,13.53
2018-11-02T20:49:06.016Z,14.43
2018-11-02T20:51:38.902Z,14.70
2018-11-02T20:54:11.642Z,14.90
2018-11-02T20:56:44.906Z,14.50
2018-11-02T20:59:17.796Z,16.50
2018-11-02T21:01:49.857Z,16.47
2018-11-02T21:04:21.878Z,15.57
2018-11-02T21:06:53.986Z,15.83
2018-11-02T21:09:26.196Z,13.60
2018-11-02T21:11:58.075Z,12.67
2018-11-02T21:14:30.224Z,19.73
2018-11-02T21:17:02.202Z,15.33
2018-11-02T21:19:34.175Z,17.33
2018-11-02T21:22:08.225Z,13.33
2018-11-02T21:24:40.291Z,13.97
2018-11-02T21:27:12.326Z,14.23
2018-11-02T21:29:44.343Z,14.77
2018-11-02T21:32:16.415Z,14.83
2018-11-02T21:34:48.482Z,13.13
2018-11-02T21:37:20.531Z,12.70
2018-11-02T21:39:52.517Z,13.50
2018-11-02T21:42:24.582Z,14.73
2018-11-02T21:44:56.621Z,13.93
2018-11-02T21:47:28.680Z,20.13
2018-11-02T21:50:07.807Z,16.17
2018-11-02T21:52:39.882Z,15.70
2018-11-02T21:55:11.905Z,15.97
2018-11-02T21:57:43.930Z,14.90
2018-11-02T22:00:21.064Z,14.73
2018-11-02T22:02:53.081Z,16.20
2018-11-02T22:05:25.147Z,16.87
2018-11-02T22:07:57.241Z,16.40
2018-11-02T22:10:29.251Z,16.50
2018-11-02T22:13:01.308Z,17.77
2018-11-02T22:15:33.307Z,19.23
2018-11-02T22:18:05.341Z,16.67
2018-11-02T22:20:37.358Z,16.20
2018-11-02T22:23:09.399Z,14.73
2018-11-02T22:25:41.409Z,17.60
2018-11-02T22:28:13.430Z,16.07
2018-11-02T22:30:45.463Z,15.40
2018-11-02T22:33:17.542Z,14.60
2018-11-02T22:35:49.575Z,13.90
2018-11-02T22:38:21.634Z,18.97
2018-11-02T22:40:53.650Z,17.03
2018-11-02T22:43:25.683Z,17.03
2018-11-02T22:45:57.712Z,15.47
2018-11-02T22:48:29.789Z,14.87
2018-11-02T22:51:01.797Z,13.07
2018-11-02T22:53:33.810Z,14.60
2018-11-02T22:56:05.822Z,13.07
2018-11-02T22:58:37.866Z,13.80
2018-11-02T23:01:15.726Z,15.13
2018-11-02T23:03:47.726Z,13.57
2018-11-02T23:06:19.761Z,14.23
2018-11-02T23:08:52.131Z,13.80
2018-11-02T23:11:24.253Z,12.87
2018-11-02T23:13:56.280Z,14.63
2018-11-02T23:16:28.319Z,14.53
2018-11-02T23:19:00.329Z,15.43
2018-11-02T23:21:32.371Z,15.93
2018-11-02T23:24:04.727Z,13.03
2018-11-02T23:26:37.602Z,14.93
2018-11-02T23:29:09.645Z,14.20
2018-11-02T23:31:41.750Z,14.17
2018-11-02T23:34:13.758Z,14.40
2018-11-02T23:36:45.789Z,14.93
2018-11-02T23:39:17.809Z,15.33
2018-11-02T23:41:49.851Z,14.80
2018-11-02T23:44:21.908Z,15.80
2018-11-02T23:46:54.019Z,15.90
2018-11-02T23:49:26.024Z,16.37
2018-11-02T23:51:58.226Z,15.37
2018-11-02T23:54:30.240Z,16.40
2018-11-02T23:57:02.263Z,16.57
2018-11-02T23:59:41.154Z,17.10
